sensor_id;sensor_type;location;lat;lon;timestamp;P1;durP1;ratioP1;P2;durP2;ratioP2
41627;SDS011;27321;50.816;6.054;2024-03-08T00:00:30;16.10;;;10.50;;
41627;SDS011;27321;50.816;6.054;2024-03-08T00:03:33;13.67;;;9.83;;
41627;SDS011;27321;50.816;6.054;2024-03-08T00:06:34;14.00;;;10.20;;
41627;SDS011;27321;50.816;6.054;2024-03-08T00:09:36;12.87;;;9.23;;
41627;SDS011;27321;50.816;6.054;2024-03-08T00:12:38;15.13;;;10.27;;
41627;SDS011;27321;50.816;6.054;2024-03-08T00:15:46;15.40;;;10.97;;
41627;SDS011;27321;50.816;6.054;2024-03-08T00:18:50;18.17;;;12.07;;
41627;SDS011;27321;50.816;6.054;2024-03-08T00:21:51;13.03;;;9.97;;
41627;SDS011;27321;50.816;6.054;2024-03-08T00:24:52;14.33;;;10.50;;
41627;SDS011;27321;50.816;6.054;2024-03-08T00:27:53;13.97;;;10.03;;
41627;SDS011;27321;50.816;6.054;2024-03-08T00:30:56;14.60;;;11.00;;
41627;SDS011;27321;50.816;6.054;2024-03-08T00:33:57;14.87;;;10.60;;
41627;SDS011;27321;50.816;6.054;2024-03-08T00:36:58;16.45;;;11.13;;
41627;SDS011;27321;50.816;6.054;2024-03-08T00:39:59;16.23;;;10.73;;
41627;SDS011;27321;50.816;6.054;2024-03-08T00:42:59;13.30;;;9.70;;
41627;SDS011;27321;50.816;6.054;2024-03-08T00:46:04;13.07;;;10.20;;
41627;SDS011;27321;50.816;6.054;2024-03-08T00:49:04;15.63;;;10.17;;
41627;SDS011;27321;50.816;6.054;2024-03-08T00:52:07;15.37;;;10.83;;
41627;SDS011;27321;50.816;6.054;2024-03-08T00:55:08;14.55;;;9.95;;
41627;SDS011;27321;50.816;6.054;2024-03-08T00:58:10;13.93;;;9.70;;
41627;SDS011;27321;50.816;6.054;2024-03-08T01:01:13;14.77;;;10.20;;
41627;SDS011;27321;50.816;6.054;2024-03-08T01:04:16;16.30;;;10.53;;
41627;SDS011;27321;50.816;6.054;2024-03-08T01:07:17;15.80;;;10.93;;
41627;SDS011;27321;50.816;6.054;2024-03-08T01:10:18;15.68;;;10.13;;
41627;SDS011;27321;50.816;6.054;2024-03-08T01:13:19;16.50;;;10.83;;
41627;SDS011;27321;50.816;6.054;2024-03-08T01:16:21;18.42;;;10.60;;
41627;SDS011;27321;50.816;6.054;2024-03-08T01:19:22;17.63;;;10.73;;
41627;SDS011;27321;50.816;6.054;2024-03-08T01:22:24;14.90;;;10.55;;
41627;SDS011;27321;50.816;6.054;2024-03-08T01:25:24;15.20;;;11.03;;
41627;SDS011;27321;50.816;6.054;2024-03-08T01:28:25;15.30;;;10.73;;
41627;SDS011;27321;50.816;6.054;2024-03-08T01:31:26;16.33;;;10.82;;
41627;SDS011;27321;50.816;6.054;2024-03-08T01:34:29;14.83;;;10.90;;
41627;SDS011;27321;50.816;6.054;2024-03-08T01:37:30;15.70;;;11.13;;
41627;SDS011;27321;50.816;6.054;2024-03-08T01:40:30;16.17;;;11.27;;
41627;SDS011;27321;50.816;6.054;2024-03-08T01:43:31;17.87;;;11.47;;
41627;SDS011;27321;50.816;6.054;2024-03-08T01:46:33;14.30;;;10.65;;
41627;SDS011;27321;50.816;6.054;2024-03-08T01:49:35;16.17;;;10.80;;
41627;SDS011;27321;50.816;6.054;2024-03-08T01:52:36;17.77;;;11.50;;
41627;SDS011;27321;50.816;6.054;2024-03-08T01:55:38;15.25;;;11.00;;
41627;SDS011;27321;50.816;6.054;2024-03-08T01:58:43;15.23;;;10.52;;
41627;SDS011;27321;50.816;6.054;2024-03-08T02:01:44;16.20;;;11.57;;
41627;SDS011;27321;50.816;6.054;2024-03-08T02:04:45;15.93;;;11.33;;
41627;SDS011;27321;50.816;6.054;2024-03-08T02:07:46;19.60;;;12.70;;
41627;SDS011;27321;50.816;6.054;2024-03-08T02:10:47;17.15;;;12.05;;
41627;SDS011;27321;50.816;6.054;2024-03-08T02:13:49;19.37;;;11.67;;
41627;SDS011;27321;50.816;6.054;2024-03-08T02:16:50;16.67;;;11.80;;
41627;SDS011;27321;50.816;6.054;2024-03-08T02:19:51;16.13;;;11.30;;
41627;SDS011;27321;50.816;6.054;2024-03-08T02:22:52;17.70;;;11.47;;
41627;SDS011;27321;50.816;6.054;2024-03-08T02:25:54;16.10;;;10.63;;
41627;SDS011;27321;50.816;6.054;2024-03-08T02:28:56;17.63;;;12.17;;
41627;SDS011;27321;50.816;6.054;2024-03-08T02:31:57;15.90;;;10.80;;
41627;SDS011;27321;50.816;6.054;2024-03-08T02:34:58;15.40;;;11.23;;
41627;SDS011;27321;50.816;6.054;2024-03-08T02:38:00;16.20;;;11.60;;
41627;SDS011;27321;50.816;6.054;2024-03-08T02:41:04;15.20;;;10.70;;
41627;SDS011;27321;50.816;6.054;2024-03-08T02:44:04;14.93;;;10.63;;
41627;SDS011;27321;50.816;6.054;2024-03-08T02:47:07;15.43;;;10.40;;
41627;SDS011;27321;50.816;6.054;2024-03-08T02:50:08;18.90;;;10.07;;
41627;SDS011;27321;50.816;6.054;2024-03-08T02:53:09;15.73;;;10.98;;
41627;SDS011;27321;50.816;6.054;2024-03-08T02:59:13;15.63;;;10.45;;
41627;SDS011;27321;50.816;6.054;2024-03-08T03:02:15;20.13;;;11.05;;
41627;SDS011;27321;50.816;6.054;2024-03-08T03:05:16;15.82;;;10.52;;
41627;SDS011;27321;50.816;6.054;2024-03-08T03:08:17;16.27;;;11.37;;
41627;SDS011;27321;50.816;6.054;2024-03-08T03:11:19;17.60;;;10.80;;
41627;SDS011;27321;50.816;6.054;2024-03-08T03:14:23;16.03;;;10.80;;
41627;SDS011;27321;50.816;6.054;2024-03-08T03:17:24;15.50;;;10.53;;
41627;SDS011;27321;50.816;6.054;2024-03-08T03:20:25;14.95;;;10.30;;
41627;SDS011;27321;50.816;6.054;2024-03-08T03:23:32;17.60;;;11.27;;
41627;SDS011;27321;50.816;6.054;2024-03-08T03:26:33;16.38;;;11.18;;
41627;SDS011;27321;50.816;6.054;2024-03-08T03:29:34;15.93;;;10.80;;
41627;SDS011;27321;50.816;6.054;2024-03-08T03:32:35;18.27;;;11.23;;
41627;SDS011;27321;50.816;6.054;2024-03-08T03:35:47;17.20;;;10.75;;
41627;SDS011;27321;50.816;6.054;2024-03-08T03:38:47;14.53;;;10.40;;
41627;SDS011;27321;50.816;6.054;2024-03-08T03:41:48;16.10;;;11.27;;
41627;SDS011;27321;50.816;6.054;2024-03-08T03:44:52;18.10;;;12.03;;
41627;SDS011;27321;50.816;6.054;2024-03-08T03:47:53;16.73;;;11.57;;
41627;SDS011;27321;50.816;6.054;2024-03-08T03:50:53;17.00;;;11.70;;
41627;SDS011;27321;50.816;6.054;2024-03-08T03:53:54;17.40;;;11.07;;
41627;SDS011;27321;50.816;6.054;2024-03-08T03:56:57;17.20;;;11.03;;
41627;SDS011;27321;50.816;6.054;2024-03-08T03:59:58;15.73;;;11.03;;
41627;SDS011;27321;50.816;6.054;2024-03-08T04:02:59;16.17;;;10.90;;
41627;SDS011;27321;50.816;6.054;2024-03-08T04:06:04;16.67;;;11.07;;
41627;SDS011;27321;50.816;6.054;2024-03-08T04:09:05;16.23;;;11.20;;
41627;SDS011;27321;50.816;6.054;2024-03-08T04:12:06;16.33;;;10.77;;
41627;SDS011;27321;50.816;6.054;2024-03-08T04:15:07;15.20;;;10.85;;
41627;SDS011;27321;50.816;6.054;2024-03-08T04:18:11;18.90;;;11.90;;
41627;SDS011;27321;50.816;6.054;2024-03-08T04:21:12;15.60;;;10.90;;
41627;SDS011;27321;50.816;6.054;2024-03-08T04:24:13;16.85;;;11.30;;
41627;SDS011;27321;50.816;6.054;2024-03-08T04:27:14;17.77;;;11.13;;
41627;SDS011;27321;50.816;6.054;2024-03-08T04:30:16;16.30;;;10.85;;
41627;SDS011;27321;50.816;6.054;2024-03-08T04:33:16;15.83;;;11.10;;
41627;SDS011;27321;50.816;6.054;2024-03-08T04:36:18;17.58;;;11.40;;
41627;SDS011;27321;50.816;6.054;2024-03-08T04:39:20;16.75;;;11.18;;
41627;SDS011;27321;50.816;6.054;2024-03-08T04:42:21;17.67;;;11.82;;
41627;SDS011;27321;50.816;6.054;2024-03-08T04:45:23;16.60;;;11.27;;
41627;SDS011;27321;50.816;6.054;2024-03-08T04:48:25;17.60;;;10.97;;
41627;SDS011;27321;50.816;6.054;2024-03-08T04:51:27;14.98;;;10.35;;
41627;SDS011;27321;50.816;6.054;2024-03-08T04:54:28;16.03;;;10.03;;
41627;SDS011;27321;50.816;6.054;2024-03-08T04:57:29;16.23;;;10.30;;
41627;SDS011;27321;50.816;6.054;2024-03-08T05:00:30;15.73;;;10.90;;
41627;SDS011;27321;50.816;6.054;2024-03-08T05:03:31;16.95;;;11.07;;
41627;SDS011;27321;50.816;6.054;2024-03-08T05:06:32;18.27;;;11.43;;
41627;SDS011;27321;50.816;6.054;2024-03-08T05:09:33;16.48;;;10.60;;
41627;SDS011;27321;50.816;6.054;2024-03-08T05:12:37;16.07;;;10.23;;
41627;SDS011;27321;50.816;6.054;2024-03-08T05:15:40;16.27;;;10.67;;
41627;SDS011;27321;50.816;6.054;2024-03-08T05:18:42;16.88;;;10.60;;
41627;SDS011;27321;50.816;6.054;2024-03-08T05:21:43;19.43;;;12.17;;
41627;SDS011;27321;50.816;6.054;2024-03-08T05:24:48;19.00;;;11.30;;
41627;SDS011;27321;50.816;6.054;2024-03-08T05:27:49;19.40;;;10.90;;
41627;SDS011;27321;50.816;6.054;2024-03-08T05:30:50;17.87;;;10.90;;
41627;SDS011;27321;50.816;6.054;2024-03-08T05:33:50;17.80;;;10.50;;
41627;SDS011;27321;50.816;6.054;2024-03-08T05:36:51;17.13;;;10.70;;
41627;SDS011;27321;50.816;6.054;2024-03-08T05:39:54;20.50;;;11.87;;
41627;SDS011;27321;50.816;6.054;2024-03-08T05:42:55;16.90;;;11.00;;
41627;SDS011;27321;50.816;6.054;2024-03-08T05:45:56;17.70;;;11.20;;
41627;SDS011;27321;50.816;6.054;2024-03-08T05:48:57;19.47;;;11.30;;
41627;SDS011;27321;50.816;6.054;2024-03-08T05:52:05;16.80;;;10.53;;
41627;SDS011;27321;50.816;6.054;2024-03-08T05:55:07;16.80;;;10.60;;
41627;SDS011;27321;50.816;6.054;2024-03-08T05:58:10;17.67;;;11.03;;
41627;SDS011;27321;50.816;6.054;2024-03-08T06:01:11;19.92;;;11.43;;
41627;SDS011;27321;50.816;6.054;2024-03-08T06:04:13;18.63;;;10.35;;
41627;SDS011;27321;50.816;6.054;2024-03-08T06:07:14;17.95;;;10.65;;
41627;SDS011;27321;50.816;6.054;2024-03-08T06:10:16;18.98;;;10.93;;
41627;SDS011;27321;50.816;6.054;2024-03-08T06:13:17;18.55;;;10.40;;
41627;SDS011;27321;50.816;6.054;2024-03-08T06:16:19;19.52;;;12.20;;
41627;SDS011;27321;50.816;6.054;2024-03-08T06:19:20;19.48;;;12.43;;
41627;SDS011;27321;50.816;6.054;2024-03-08T06:22:21;20.37;;;12.37;;
41627;SDS011;27321;50.816;6.054;2024-03-08T06:25:22;18.47;;;11.80;;
41627;SDS011;27321;50.816;6.054;2024-03-08T06:28:23;18.53;;;12.43;;
41627;SDS011;27321;50.816;6.054;2024-03-08T06:31:24;17.52;;;11.88;;
41627;SDS011;27321;50.816;6.054;2024-03-08T06:34:25;23.43;;;13.23;;
41627;SDS011;27321;50.816;6.054;2024-03-08T06:37:26;23.40;;;13.27;;
41627;SDS011;27321;50.816;6.054;2024-03-08T06:40:27;19.53;;;12.43;;
41627;SDS011;27321;50.816;6.054;2024-03-08T06:43:28;21.92;;;14.30;;
41627;SDS011;27321;50.816;6.054;2024-03-08T06:46:34;22.77;;;14.20;;
41627;SDS011;27321;50.816;6.054;2024-03-08T06:49:35;24.47;;;14.57;;
41627;SDS011;27321;50.816;6.054;2024-03-08T06:52:36;20.30;;;13.17;;
41627;SDS011;27321;50.816;6.054;2024-03-08T06:55:37;22.13;;;13.77;;
41627;SDS011;27321;50.816;6.054;2024-03-08T06:58:38;18.50;;;12.27;;
41627;SDS011;27321;50.816;6.054;2024-03-08T07:01:38;19.93;;;12.23;;
41627;SDS011;27321;50.816;6.054;2024-03-08T07:04:39;19.03;;;12.17;;
41627;SDS011;27321;50.816;6.054;2024-03-08T07:07:40;21.10;;;12.17;;
41627;SDS011;27321;50.816;6.054;2024-03-08T07:10:41;18.45;;;11.93;;
41627;SDS011;27321;50.816;6.054;2024-03-08T07:13:42;20.98;;;12.05;;
41627;SDS011;27321;50.816;6.054;2024-03-08T07:16:43;19.33;;;12.70;;
41627;SDS011;27321;50.816;6.054;2024-03-08T07:19:44;21.77;;;13.18;;
41627;SDS011;27321;50.816;6.054;2024-03-08T07:22:46;21.10;;;12.27;;
41627;SDS011;27321;50.816;6.054;2024-03-08T07:25:53;20.07;;;12.10;;
41627;SDS011;27321;50.816;6.054;2024-03-08T07:28:54;19.70;;;12.63;;
41627;SDS011;27321;50.816;6.054;2024-03-08T07:31:55;22.88;;;12.07;;
41627;SDS011;27321;50.816;6.054;2024-03-08T07:35:19;21.37;;;13.07;;
41627;SDS011;27321;50.816;6.054;2024-03-08T07:38:20;20.53;;;13.00;;
41627;SDS011;27321;50.816;6.054;2024-03-08T07:41:21;20.73;;;12.55;;
41627;SDS011;27321;50.816;6.054;2024-03-08T07:47:24;22.13;;;13.83;;
41627;SDS011;27321;50.816;6.054;2024-03-08T07:50:26;21.43;;;13.23;;
41627;SDS011;27321;50.816;6.054;2024-03-08T07:53:27;22.97;;;13.07;;
41627;SDS011;27321;50.816;6.054;2024-03-08T07:56:28;19.70;;;11.93;;
41627;SDS011;27321;50.816;6.054;2024-03-08T07:59:29;18.93;;;12.40;;
41627;SDS011;27321;50.816;6.054;2024-03-08T08:02:30;18.67;;;12.45;;
41627;SDS011;27321;50.816;6.054;2024-03-08T08:05:31;21.10;;;12.00;;
41627;SDS011;27321;50.816;6.054;2024-03-08T08:08:35;18.93;;;12.07;;
41627;SDS011;27321;50.816;6.054;2024-03-08T08:11:40;19.97;;;12.27;;
41627;SDS011;27321;50.816;6.054;2024-03-08T08:14:45;21.90;;;13.27;;
41627;SDS011;27321;50.816;6.054;2024-03-08T08:17:47;20.90;;;12.25;;
41627;SDS011;27321;50.816;6.054;2024-03-08T08:20:48;21.67;;;12.80;;
41627;SDS011;27321;50.816;6.054;2024-03-08T08:23:48;18.63;;;11.37;;
41627;SDS011;27321;50.816;6.054;2024-03-08T08:26:49;23.40;;;12.13;;
41627;SDS011;27321;50.816;6.054;2024-03-08T08:29:50;21.63;;;13.40;;
41627;SDS011;27321;50.816;6.054;2024-03-08T08:32:51;22.48;;;13.18;;
41627;SDS011;27321;50.816;6.054;2024-03-08T08:35:52;19.23;;;12.10;;
41627;SDS011;27321;50.816;6.054;2024-03-08T08:38:54;21.42;;;12.48;;
41627;SDS011;27321;50.816;6.054;2024-03-08T08:41:55;18.83;;;11.50;;
41627;SDS011;27321;50.816;6.054;2024-03-08T08:44:56;18.25;;;11.85;;
41627;SDS011;27321;50.816;6.054;2024-03-08T08:47:57;20.67;;;11.93;;
41627;SDS011;27321;50.816;6.054;2024-03-08T08:54:02;20.03;;;11.83;;
41627;SDS011;27321;50.816;6.054;2024-03-08T08:57:03;20.17;;;11.95;;
41627;SDS011;27321;50.816;6.054;2024-03-08T09:00:07;20.40;;;12.50;;
41627;SDS011;27321;50.816;6.054;2024-03-08T09:03:09;21.30;;;11.70;;
41627;SDS011;27321;50.816;6.054;2024-03-08T09:06:11;20.08;;;12.15;;
41627;SDS011;27321;50.816;6.054;2024-03-08T09:09:12;19.33;;;10.87;;
41627;SDS011;27321;50.816;6.054;2024-03-08T09:12:13;18.77;;;11.63;;
41627;SDS011;27321;50.816;6.054;2024-03-08T09:15:15;17.83;;;11.57;;
41627;SDS011;27321;50.816;6.054;2024-03-08T09:18:20;18.67;;;11.10;;
41627;SDS011;27321;50.816;6.054;2024-03-08T09:21:21;19.70;;;11.67;;
41627;SDS011;27321;50.816;6.054;2024-03-08T09:24:22;19.95;;;12.10;;
41627;SDS011;27321;50.816;6.054;2024-03-08T09:27:23;23.57;;;12.93;;
41627;SDS011;27321;50.816;6.054;2024-03-08T09:30:24;18.92;;;12.00;;
41627;SDS011;27321;50.816;6.054;2024-03-08T09:33:25;19.97;;;11.70;;
41627;SDS011;27321;50.816;6.054;2024-03-08T09:36:27;17.27;;;11.30;;
41627;SDS011;27321;50.816;6.054;2024-03-08T09:39:28;15.13;;;10.33;;
41627;SDS011;27321;50.816;6.054;2024-03-08T09:42:29;16.53;;;10.43;;
41627;SDS011;27321;50.816;6.054;2024-03-08T09:45:32;17.43;;;10.80;;
41627;SDS011;27321;50.816;6.054;2024-03-08T09:48:39;17.03;;;10.60;;
41627;SDS011;27321;50.816;6.054;2024-03-08T09:51:41;18.63;;;11.33;;
41627;SDS011;27321;50.816;6.054;2024-03-08T09:54:42;16.30;;;10.83;;
41627;SDS011;27321;50.816;6.054;2024-03-08T09:57:44;19.58;;;11.38;;
41627;SDS011;27321;50.816;6.054;2024-03-08T10:01:06;18.50;;;10.98;;
41627;SDS011;27321;50.816;6.054;2024-03-08T10:04:06;19.40;;;12.33;;
41627;SDS011;27321;50.816;6.054;2024-03-08T10:07:10;17.17;;;11.43;;
41627;SDS011;27321;50.816;6.054;2024-03-08T10:10:11;16.87;;;10.90;;
41627;SDS011;27321;50.816;6.054;2024-03-08T10:13:12;14.32;;;10.50;;
41627;SDS011;27321;50.816;6.054;2024-03-08T10:16:14;17.65;;;11.40;;
41627;SDS011;27321;50.816;6.054;2024-03-08T10:19:17;19.83;;;11.10;;
41627;SDS011;27321;50.816;6.054;2024-03-08T10:22:18;17.73;;;11.43;;
41627;SDS011;27321;50.816;6.054;2024-03-08T10:25:19;13.40;;;9.77;;
41627;SDS011;27321;50.816;6.054;2024-03-08T10:28:20;14.63;;;9.70;;
41627;SDS011;27321;50.816;6.054;2024-03-08T10:31:25;17.43;;;10.07;;
41627;SDS011;27321;50.816;6.054;2024-03-08T10:34:25;15.47;;;10.57;;
41627;SDS011;27321;50.816;6.054;2024-03-08T10:37:26;16.00;;;9.33;;
41627;SDS011;27321;50.816;6.054;2024-03-08T10:40:29;19.03;;;10.90;;
41627;SDS011;27321;50.816;6.054;2024-03-08T10:43:33;15.57;;;10.17;;
41627;SDS011;27321;50.816;6.054;2024-03-08T10:50:17;16.50;;;10.93;;
41627;SDS011;27321;50.816;6.054;2024-03-08T10:53:26;15.57;;;9.87;;
41627;SDS011;27321;50.816;6.054;2024-03-08T10:56:29;14.50;;;9.63;;
41627;SDS011;27321;50.816;6.054;2024-03-08T10:59:30;14.00;;;9.17;;
41627;SDS011;27321;50.816;6.054;2024-03-08T11:02:32;12.35;;;8.60;;
41627;SDS011;27321;50.816;6.054;2024-03-08T11:05:37;11.70;;;7.93;;
41627;SDS011;27321;50.816;6.054;2024-03-08T11:08:39;11.17;;;7.27;;
41627;SDS011;27321;50.816;6.054;2024-03-08T11:11:40;10.88;;;7.63;;
41627;SDS011;27321;50.816;6.054;2024-03-08T11:14:44;11.60;;;7.47;;
41627;SDS011;27321;50.816;6.054;2024-03-08T11:17:49;12.20;;;7.17;;
41627;SDS011;27321;50.816;6.054;2024-03-08T11:20:53;12.13;;;7.13;;
41627;SDS011;27321;50.816;6.054;2024-03-08T11:24:08;8.97;;;6.27;;
41627;SDS011;27321;50.816;6.054;2024-03-08T11:27:13;11.23;;;6.93;;
41627;SDS011;27321;50.816;6.054;2024-03-08T11:33:24;10.87;;;6.57;;
41627;SDS011;27321;50.816;6.054;2024-03-08T11:36:31;10.67;;;7.80;;
41627;SDS011;27321;50.816;6.054;2024-03-08T11:39:37;9.40;;;6.63;;
41627;SDS011;27321;50.816;6.054;2024-03-08T11:42:40;9.57;;;6.37;;
41627;SDS011;27321;50.816;6.054;2024-03-08T11:45:44;11.30;;;8.27;;
41627;SDS011;27321;50.816;6.054;2024-03-08T11:48:47;13.47;;;7.60;;
41627;SDS011;27321;50.816;6.054;2024-03-08T11:51:50;11.73;;;7.37;;
41627;SDS011;27321;50.816;6.054;2024-03-08T11:54:54;10.50;;;7.10;;
41627;SDS011;27321;50.816;6.054;2024-03-08T11:58:03;10.50;;;6.83;;
41627;SDS011;27321;50.816;6.054;2024-03-08T12:01:05;11.13;;;6.50;;
41627;SDS011;27321;50.816;6.054;2024-03-08T12:04:12;11.03;;;7.53;;
41627;SDS011;27321;50.816;6.054;2024-03-08T12:07:13;11.68;;;7.00;;
41627;SDS011;27321;50.816;6.054;2024-03-08T12:10:15;10.52;;;6.72;;
41627;SDS011;27321;50.816;6.054;2024-03-08T12:13:17;10.53;;;6.83;;
41627;SDS011;27321;50.816;6.054;2024-03-08T12:16:18;10.27;;;6.60;;
41627;SDS011;27321;50.816;6.054;2024-03-08T12:19:19;8.85;;;6.22;;
41627;SDS011;27321;50.816;6.054;2024-03-08T12:22:24;9.88;;;6.53;;
41627;SDS011;27321;50.816;6.054;2024-03-08T12:25:27;9.50;;;6.87;;
41627;SDS011;27321;50.816;6.054;2024-03-08T12:28:31;9.90;;;6.03;;
41627;SDS011;27321;50.816;6.054;2024-03-08T12:31:32;10.00;;;6.07;;
41627;SDS011;27321;50.816;6.054;2024-03-08T12:34:33;10.68;;;7.20;;
41627;SDS011;27321;50.816;6.054;2024-03-08T12:37:35;12.77;;;7.82;;
41627;SDS011;27321;50.816;6.054;2024-03-08T12:40:37;13.90;;;8.50;;
41627;SDS011;27321;50.816;6.054;2024-03-08T12:43:42;11.53;;;7.57;;
41627;SDS011;27321;50.816;6.054;2024-03-08T12:46:48;10.93;;;7.47;;
41627;SDS011;27321;50.816;6.054;2024-03-08T12:49:51;12.87;;;9.37;;
41627;SDS011;27321;50.816;6.054;2024-03-08T12:52:52;12.75;;;9.05;;
41627;SDS011;27321;50.816;6.054;2024-03-08T12:55:53;13.27;;;8.82;;
41627;SDS011;27321;50.816;6.054;2024-03-08T12:58:56;11.43;;;8.17;;
41627;SDS011;27321;50.816;6.054;2024-03-08T13:01:58;14.15;;;9.43;;
41627;SDS011;27321;50.816;6.054;2024-03-08T13:05:02;12.77;;;8.90;;
41627;SDS011;27321;50.816;6.054;2024-03-08T13:08:05;12.50;;;8.30;;
41627;SDS011;27321;50.816;6.054;2024-03-08T13:11:16;11.30;;;8.05;;
41627;SDS011;27321;50.816;6.054;2024-03-08T13:14:17;16.58;;;9.07;;
41627;SDS011;27321;50.816;6.054;2024-03-08T13:17:18;13.38;;;8.05;;
41627;SDS011;27321;50.816;6.054;2024-03-08T13:20:19;12.60;;;9.38;;
41627;SDS011;27321;50.816;6.054;2024-03-08T13:23:23;12.17;;;8.87;;
41627;SDS011;27321;50.816;6.054;2024-03-08T13:26:24;13.63;;;9.73;;
41627;SDS011;27321;50.816;6.054;2024-03-08T13:29:26;11.03;;;8.33;;
41627;SDS011;27321;50.816;6.054;2024-03-08T13:32:26;9.83;;;7.37;;
41627;SDS011;27321;50.816;6.054;2024-03-08T13:35:27;10.10;;;7.43;;
41627;SDS011;27321;50.816;6.054;2024-03-08T13:38:30;13.77;;;8.93;;
41627;SDS011;27321;50.816;6.054;2024-03-08T13:41:32;11.10;;;7.97;;
41627;SDS011;27321;50.816;6.054;2024-03-08T13:44:33;11.83;;;7.83;;
41627;SDS011;27321;50.816;6.054;2024-03-08T13:47:34;9.70;;;7.60;;
41627;SDS011;27321;50.816;6.054;2024-03-08T13:50:36;10.40;;;7.60;;
41627;SDS011;27321;50.816;6.054;2024-03-08T13:53:36;14.53;;;8.07;;
41627;SDS011;27321;50.816;6.054;2024-03-08T13:56:37;10.93;;;7.83;;
41627;SDS011;27321;50.816;6.054;2024-03-08T13:59:38;10.30;;;7.20;;
41627;SDS011;27321;50.816;6.054;2024-03-08T14:02:40;9.48;;;6.85;;
41627;SDS011;27321;50.816;6.054;2024-03-08T14:05:41;9.60;;;7.13;;
41627;SDS011;27321;50.816;6.054;2024-03-08T14:08:43;8.65;;;6.63;;
41627;SDS011;27321;50.816;6.054;2024-03-08T14:14:45;8.43;;;6.73;;
41627;SDS011;27321;50.816;6.054;2024-03-08T14:17:52;11.27;;;7.50;;
41627;SDS011;27321;50.816;6.054;2024-03-08T14:20:54;10.77;;;7.63;;
41627;SDS011;27321;50.816;6.054;2024-03-08T14:23:55;12.68;;;7.60;;
